sensor_id;sensor_type;location;lat;lon;timestamp;P1;durP1;ratioP1;P2;durP2;ratioP2
40729;SDS011;26418;50.070;8.436;2023-03-01T00:01:01;16.73;;;10.23;;
40729;SDS011;26418;50.070;8.436;2023-03-01T00:03:31;19.42;;;9.15;;
40729;SDS011;26418;50.070;8.436;2023-03-01T00:05:57;14.07;;;9.35;;
40729;SDS011;26418;50.070;8.436;2023-03-01T00:08:23;15.95;;;9.13;;
40729;SDS011;26418;50.070;8.436;2023-03-01T00:10:49;16.08;;;9.48;;
40729;SDS011;26418;50.070;8.436;2023-03-01T00:13:14;19.08;;;9.35;;
40729;SDS011;26418;50.070;8.436;2023-03-01T00:15:40;16.50;;;9.27;;
40729;SDS011;26418;50.070;8.436;2023-03-01T00:18:06;15.52;;;8.52;;
40729;SDS011;26418;50.070;8.436;2023-03-01T00:20:33;17.23;;;9.35;;
40729;SDS011;26418;50.070;8.436;2023-03-01T00:22:58;18.77;;;9.68;;
40729;SDS011;26418;50.070;8.436;2023-03-01T00:25:24;19.58;;;9.27;;
40729;SDS011;26418;50.070;8.436;2023-03-01T00:27:49;21.65;;;9.10;;
40729;SDS011;26418;50.070;8.436;2023-03-01T00:30:14;16.10;;;9.35;;
40729;SDS011;26418;50.070;8.436;2023-03-01T00:32:43;15.80;;;9.60;;
40729;SDS011;26418;50.070;8.436;2023-03-01T00:35:08;15.43;;;9.20;;
40729;SDS011;26418;50.070;8.436;2023-03-01T00:37:34;17.13;;;8.52;;
40729;SDS011;26418;50.070;8.436;2023-03-01T00:39:59;21.13;;;9.82;;
40729;SDS011;26418;50.070;8.436;2023-03-01T00:42:25;16.33;;;9.23;;
40729;SDS011;26418;50.070;8.436;2023-03-01T00:44:50;17.13;;;9.18;;
40729;SDS011;26418;50.070;8.436;2023-03-01T00:47:15;18.38;;;9.48;;
40729;SDS011;26418;50.070;8.436;2023-03-01T00:49:40;18.52;;;10.30;;
40729;SDS011;26418;50.070;8.436;2023-03-01T00:52:06;22.05;;;8.95;;
40729;SDS011;26418;50.070;8.436;2023-03-01T00:54:31;15.45;;;8.63;;
40729;SDS011;26418;50.070;8.436;2023-03-01T00:56:56;18.67;;;9.57;;
40729;SDS011;26418;50.070;8.436;2023-03-01T00:59:22;15.70;;;8.55;;
40729;SDS011;26418;50.070;8.436;2023-03-01T01:01:47;19.40;;;9.10;;
40729;SDS011;26418;50.070;8.436;2023-03-01T01:04:13;16.90;;;9.30;;
40729;SDS011;26418;50.070;8.436;2023-03-01T01:09:07;19.75;;;9.63;;
40729;SDS011;26418;50.070;8.436;2023-03-01T01:11:33;19.98;;;9.25;;
40729;SDS011;26418;50.070;8.436;2023-03-01T01:14:01;20.75;;;10.85;;
40729;SDS011;26418;50.070;8.436;2023-03-01T01:16:27;21.08;;;10.40;;
40729;SDS011;26418;50.070;8.436;2023-03-01T01:18:53;19.15;;;10.02;;
40729;SDS011;26418;50.070;8.436;2023-03-01T01:21:20;19.80;;;10.25;;
40729;SDS011;26418;50.070;8.436;2023-03-01T01:23:48;17.85;;;8.85;;
40729;SDS011;26418;50.070;8.436;2023-03-01T01:26:15;19.63;;;9.75;;
40729;SDS011;26418;50.070;8.436;2023-03-01T01:28:43;18.88;;;9.82;;
40729;SDS011;26418;50.070;8.436;2023-03-01T01:31:09;17.85;;;10.13;;
40729;SDS011;26418;50.070;8.436;2023-03-01T01:33:34;18.67;;;10.07;;
40729;SDS011;26418;50.070;8.436;2023-03-01T01:36:00;17.95;;;10.02;;
40729;SDS011;26418;50.070;8.436;2023-03-01T01:38:26;20.13;;;9.88;;
40729;SDS011;26418;50.070;8.436;2023-03-01T01:40:51;18.85;;;10.02;;
40729;SDS011;26418;50.070;8.436;2023-03-01T01:43:27;17.63;;;10.07;;
40729;SDS011;26418;50.070;8.436;2023-03-01T01:45:55;18.50;;;10.38;;
40729;SDS011;26418;50.070;8.436;2023-03-01T01:48:24;21.70;;;10.13;;
40729;SDS011;26418;50.070;8.436;2023-03-01T01:51:05;20.42;;;9.80;;
40729;SDS011;26418;50.070;8.436;2023-03-01T01:53:32;19.48;;;9.90;;
40729;SDS011;26418;50.070;8.436;2023-03-01T01:55:58;19.88;;;10.60;;
40729;SDS011;26418;50.070;8.436;2023-03-01T01:58:26;18.65;;;10.02;;
40729;SDS011;26418;50.070;8.436;2023-03-01T02:00:54;19.13;;;9.60;;
40729;SDS011;26418;50.070;8.436;2023-03-01T02:03:22;18.35;;;10.10;;
40729;SDS011;26418;50.070;8.436;2023-03-01T02:05:56;17.08;;;10.25;;
40729;SDS011;26418;50.070;8.436;2023-03-01T02:08:32;20.00;;;10.55;;
40729;SDS011;26418;50.070;8.436;2023-03-01T02:11:02;18.58;;;9.65;;
40729;SDS011;26418;50.070;8.436;2023-03-01T02:13:29;18.15;;;9.98;;
40729;SDS011;26418;50.070;8.436;2023-03-01T02:15:56;18.23;;;10.75;;
40729;SDS011;26418;50.070;8.436;2023-03-01T02:18:22;22.52;;;11.77;;
40729;SDS011;26418;50.070;8.436;2023-03-01T02:21:04;21.10;;;11.05;;
40729;SDS011;26418;50.070;8.436;2023-03-01T02:23:51;23.17;;;11.85;;
40729;SDS011;26418;50.070;8.436;2023-03-01T02:28:57;18.73;;;10.77;;
40729;SDS011;26418;50.070;8.436;2023-03-01T02:31:23;19.10;;;10.55;;
40729;SDS011;26418;50.070;8.436;2023-03-01T02:34:07;20.98;;;10.80;;
40729;SDS011;26418;50.070;8.436;2023-03-01T02:36:53;22.67;;;10.65;;
40729;SDS011;26418;50.070;8.436;2023-03-01T02:39:27;23.45;;;10.95;;
40729;SDS011;26418;50.070;8.436;2023-03-01T02:41:56;18.30;;;10.38;;
40729;SDS011;26418;50.070;8.436;2023-03-01T02:44:21;18.45;;;10.93;;
40729;SDS011;26418;50.070;8.436;2023-03-01T02:46:49;20.00;;;9.88;;
40729;SDS011;26418;50.070;8.436;2023-03-01T02:49:21;21.02;;;11.57;;
40729;SDS011;26418;50.070;8.436;2023-03-01T02:51:54;17.85;;;10.27;;
40729;SDS011;26418;50.070;8.436;2023-03-01T02:55:07;19.48;;;10.95;;
40729;SDS011;26418;50.070;8.436;2023-03-01T02:57:27;21.80;;;11.43;;
40729;SDS011;26418;50.070;8.436;2023-03-01T02:59:55;18.10;;;10.60;;
40729;SDS011;26418;50.070;8.436;2023-03-01T03:02:23;16.73;;;9.93;;
40729;SDS011;26418;50.070;8.436;2023-03-01T03:05:10;20.15;;;10.70;;
40729;SDS011;26418;50.070;8.436;2023-03-01T03:07:38;18.27;;;9.90;;
40729;SDS011;26418;50.070;8.436;2023-03-01T03:10:06;18.85;;;11.02;;
40729;SDS011;26418;50.070;8.436;2023-03-01T03:12:36;21.98;;;10.60;;
40729;SDS011;26418;50.070;8.436;2023-03-01T03:15:02;24.35;;;11.38;;
40729;SDS011;26418;50.070;8.436;2023-03-01T03:17:33;20.95;;;10.38;;
40729;SDS011;26418;50.070;8.436;2023-03-01T03:20:03;20.05;;;11.38;;
40729;SDS011;26418;50.070;8.436;2023-03-01T03:22:30;21.63;;;11.35;;
40729;SDS011;26418;50.070;8.436;2023-03-01T03:24:56;19.92;;;10.95;;
40729;SDS011;26418;50.070;8.436;2023-03-01T03:27:21;20.98;;;11.07;;
40729;SDS011;26418;50.070;8.436;2023-03-01T03:29:47;21.25;;;11.75;;
40729;SDS011;26418;50.070;8.436;2023-03-01T03:32:12;22.83;;;11.40;;
40729;SDS011;26418;50.070;8.436;2023-03-01T03:34:37;21.17;;;11.10;;
40729;SDS011;26418;50.070;8.436;2023-03-01T03:37:03;22.25;;;11.82;;
40729;SDS011;26418;50.070;8.436;2023-03-01T03:39:28;20.52;;;10.38;;
40729;SDS011;26418;50.070;8.436;2023-03-01T03:41:59;19.75;;;10.80;;
40729;SDS011;26418;50.070;8.436;2023-03-01T03:44:25;22.00;;;11.02;;
40729;SDS011;26418;50.070;8.436;2023-03-01T03:46:50;21.55;;;10.90;;
40729;SDS011;26418;50.070;8.436;2023-03-01T03:49:15;20.38;;;11.38;;
40729;SDS011;26418;50.070;8.436;2023-03-01T03:51:40;17.63;;;9.73;;
40729;SDS011;26418;50.070;8.436;2023-03-01T03:54:06;20.77;;;11.43;;
40729;SDS011;26418;50.070;8.436;2023-03-01T03:56:31;27.35;;;11.80;;
40729;SDS011;26418;50.070;8.436;2023-03-01T03:58:57;24.35;;;11.10;;
40729;SDS011;26418;50.070;8.436;2023-03-01T04:01:22;24.65;;;11.35;;
40729;SDS011;26418;50.070;8.436;2023-03-01T04:03:47;26.63;;;12.63;;
40729;SDS011;26418;50.070;8.436;2023-03-01T04:06:16;23.75;;;12.02;;
40729;SDS011;26418;50.070;8.436;2023-03-01T04:08:41;24.10;;;11.88;;
40729;SDS011;26418;50.070;8.436;2023-03-01T04:11:06;20.35;;;10.82;;
40729;SDS011;26418;50.070;8.436;2023-03-01T04:13:51;20.23;;;11.35;;
40729;SDS011;26418;50.070;8.436;2023-03-01T04:16:17;22.27;;;11.55;;
40729;SDS011;26418;50.070;8.436;2023-03-01T04:18:42;26.60;;;12.55;;
40729;SDS011;26418;50.070;8.436;2023-03-01T04:21:08;26.05;;;12.25;;
40729;SDS011;26418;50.070;8.436;2023-03-01T04:23:36;23.27;;;12.25;;
40729;SDS011;26418;50.070;8.436;2023-03-01T04:26:01;24.65;;;12.90;;
40729;SDS011;26418;50.070;8.436;2023-03-01T04:28:28;26.90;;;13.38;;
40729;SDS011;26418;50.070;8.436;2023-03-01T04:31:11;21.40;;;11.35;;
40729;SDS011;26418;50.070;8.436;2023-03-01T04:33:39;21.92;;;11.57;;
40729;SDS011;26418;50.070;8.436;2023-03-01T04:36:05;22.85;;;11.90;;
40729;SDS011;26418;50.070;8.436;2023-03-01T04:38:33;20.35;;;11.85;;
40729;SDS011;26418;50.070;8.436;2023-03-01T04:41:01;24.20;;;12.50;;
40729;SDS011;26418;50.070;8.436;2023-03-01T04:43:28;25.45;;;12.45;;
40729;SDS011;26418;50.070;8.436;2023-03-01T04:45:53;23.83;;;11.55;;
40729;SDS011;26418;50.070;8.436;2023-03-01T04:48:19;25.45;;;12.07;;
40729;SDS011;26418;50.070;8.436;2023-03-01T04:50:44;25.45;;;11.55;;
40729;SDS011;26418;50.070;8.436;2023-03-01T04:53:09;21.58;;;11.88;;
40729;SDS011;26418;50.070;8.436;2023-03-01T04:55:34;25.88;;;12.82;;
40729;SDS011;26418;50.070;8.436;2023-03-01T04:58:00;23.23;;;11.85;;
40729;SDS011;26418;50.070;8.436;2023-03-01T05:00:25;22.13;;;11.25;;
40729;SDS011;26418;50.070;8.436;2023-03-01T05:02:55;24.25;;;12.48;;
40729;SDS011;26418;50.070;8.436;2023-03-01T05:05:30;24.45;;;12.82;;
40729;SDS011;26418;50.070;8.436;2023-03-01T05:08:02;22.40;;;12.27;;
40729;SDS011;26418;50.070;8.436;2023-03-01T05:10:29;28.45;;;13.15;;
40729;SDS011;26418;50.070;8.436;2023-03-01T05:12:58;24.90;;;12.75;;
40729;SDS011;26418;50.070;8.436;2023-03-01T05:15:24;26.10;;;11.90;;
40729;SDS011;26418;50.070;8.436;2023-03-01T05:17:55;24.27;;;13.35;;
40729;SDS011;26418;50.070;8.436;2023-03-01T05:20:23;29.13;;;13.23;;
40729;SDS011;26418;50.070;8.436;2023-03-01T05:22:50;24.13;;;12.45;;
40729;SDS011;26418;50.070;8.436;2023-03-01T05:25:16;24.75;;;13.40;;
40729;SDS011;26418;50.070;8.436;2023-03-01T05:27:42;23.98;;;12.40;;
40729;SDS011;26418;50.070;8.436;2023-03-01T05:30:08;23.38;;;11.98;;
40729;SDS011;26418;50.070;8.436;2023-03-01T05:32:41;25.40;;;12.73;;
40729;SDS011;26418;50.070;8.436;2023-03-01T05:35:08;24.27;;;12.43;;
40729;SDS011;26418;50.070;8.436;2023-03-01T05:37:38;25.95;;;12.20;;
40729;SDS011;26418;50.070;8.436;2023-03-01T05:40:04;20.17;;;12.52;;
40729;SDS011;26418;50.070;8.436;2023-03-01T05:42:30;23.52;;;11.85;;
40729;SDS011;26418;50.070;8.436;2023-03-01T05:44:55;27.65;;;13.15;;
40729;SDS011;26418;50.070;8.436;2023-03-01T05:47:21;24.63;;;11.75;;
40729;SDS011;26418;50.070;8.436;2023-03-01T05:49:46;26.02;;;13.15;;
40729;SDS011;26418;50.070;8.436;2023-03-01T05:52:12;21.95;;;11.40;;
40729;SDS011;26418;50.070;8.436;2023-03-01T05:54:37;27.25;;;12.98;;
40729;SDS011;26418;50.070;8.436;2023-03-01T05:57:03;23.27;;;11.75;;
40729;SDS011;26418;50.070;8.436;2023-03-01T05:59:28;22.67;;;11.10;;
40729;SDS011;26418;50.070;8.436;2023-03-01T06:01:54;26.98;;;13.70;;
40729;SDS011;26418;50.070;8.436;2023-03-01T06:04:19;21.77;;;11.75;;
40729;SDS011;26418;50.070;8.436;2023-03-01T06:06:44;23.38;;;12.10;;
40729;SDS011;26418;50.070;8.436;2023-03-01T06:09:10;23.13;;;13.50;;
40729;SDS011;26418;50.070;8.436;2023-03-01T06:11:35;24.55;;;11.75;;
40729;SDS011;26418;50.070;8.436;2023-03-01T06:14:02;24.42;;;13.27;;
40729;SDS011;26418;50.070;8.436;2023-03-01T06:16:28;21.80;;;11.52;;
40729;SDS011;26418;50.070;8.436;2023-03-01T06:18:53;23.30;;;11.48;;
40729;SDS011;26418;50.070;8.436;2023-03-01T06:21:18;21.20;;;11.35;;
40729;SDS011;26418;50.070;8.436;2023-03-01T06:23:44;22.30;;;11.20;;
40729;SDS011;26418;50.070;8.436;2023-03-01T06:26:09;24.63;;;12.45;;
40729;SDS011;26418;50.070;8.436;2023-03-01T06:28:35;27.35;;;12.50;;
40729;SDS011;26418;50.070;8.436;2023-03-01T06:31:00;21.67;;;11.80;;
40729;SDS011;26418;50.070;8.436;2023-03-01T06:33:26;22.13;;;11.80;;
40729;SDS011;26418;50.070;8.436;2023-03-01T06:35:53;22.50;;;12.15;;
40729;SDS011;26418;50.070;8.436;2023-03-01T06:38:19;20.40;;;10.95;;
40729;SDS011;26418;50.070;8.436;2023-03-01T06:40:45;21.88;;;12.65;;
40729;SDS011;26418;50.070;8.436;2023-03-01T06:43:16;25.63;;;11.82;;
40729;SDS011;26418;50.070;8.436;2023-03-01T06:45:41;23.60;;;11.20;;
40729;SDS011;26418;50.070;8.436;2023-03-01T06:48:07;22.05;;;10.85;;
40729;SDS011;26418;50.070;8.436;2023-03-01T06:50:33;21.80;;;11.23;;
40729;SDS011;26418;50.070;8.436;2023-03-01T06:53:00;28.95;;;11.57;;
40729;SDS011;26418;50.070;8.436;2023-03-01T06:55:25;24.48;;;12.32;;
40729;SDS011;26418;50.070;8.436;2023-03-01T06:57:55;21.58;;;10.63;;
40729;SDS011;26418;50.070;8.436;2023-03-01T07:00:21;20.27;;;10.20;;
40729;SDS011;26418;50.070;8.436;2023-03-01T07:02:47;18.60;;;10.05;;
40729;SDS011;26418;50.070;8.436;2023-03-01T07:05:13;22.08;;;11.05;;
40729;SDS011;26418;50.070;8.436;2023-03-01T07:07:38;16.20;;;9.93;;
40729;SDS011;26418;50.070;8.436;2023-03-01T07:10:03;23.33;;;11.63;;
40729;SDS011;26418;50.070;8.436;2023-03-01T07:12:30;21.75;;;11.05;;
40729;SDS011;26418;50.070;8.436;2023-03-01T07:14:55;21.88;;;10.88;;
40729;SDS011;26418;50.070;8.436;2023-03-01T07:17:20;23.75;;;11.68;;
40729;SDS011;26418;50.070;8.436;2023-03-01T07:19:46;25.30;;;12.02;;
40729;SDS011;26418;50.070;8.436;2023-03-01T07:22:11;25.38;;;11.98;;
40729;SDS011;26418;50.070;8.436;2023-03-01T07:24:36;19.30;;;11.52;;
40729;SDS011;26418;50.070;8.436;2023-03-01T07:27:02;22.98;;;10.80;;
40729;SDS011;26418;50.070;8.436;2023-03-01T07:29:27;24.85;;;11.98;;
40729;SDS011;26418;50.070;8.436;2023-03-01T07:31:53;23.90;;;11.73;;
40729;SDS011;26418;50.070;8.436;2023-03-01T07:34:19;24.88;;;12.05;;
40729;SDS011;26418;50.070;8.436;2023-03-01T07:36:44;18.27;;;11.25;;
40729;SDS011;26418;50.070;8.436;2023-03-01T07:39:10;22.15;;;11.50;;
40729;SDS011;26418;50.070;8.436;2023-03-01T07:41:36;23.13;;;11.55;;
40729;SDS011;26418;50.070;8.436;2023-03-01T07:44:01;23.05;;;11.05;;
40729;SDS011;26418;50.070;8.436;2023-03-01T07:46:26;24.00;;;11.18;;
40729;SDS011;26418;50.070;8.436;2023-03-01T07:48:52;24.25;;;12.20;;
40729;SDS011;26418;50.070;8.436;2023-03-01T07:51:17;20.27;;;11.38;;
40729;SDS011;26418;50.070;8.436;2023-03-01T07:53:45;20.83;;;10.98;;
40729;SDS011;26418;50.070;8.436;2023-03-01T07:56:12;25.17;;;11.88;;
40729;SDS011;26418;50.070;8.436;2023-03-01T07:58:42;29.27;;;13.10;;
40729;SDS011;26418;50.070;8.436;2023-03-01T08:01:10;17.77;;;10.85;;
40729;SDS011;26418;50.070;8.436;2023-03-01T08:03:37;18.92;;;10.77;;
40729;SDS011;26418;50.070;8.436;2023-03-01T08:06:04;21.33;;;11.45;;
40729;SDS011;26418;50.070;8.436;2023-03-01T08:08:31;24.25;;;12.35;;
40729;SDS011;26418;50.070;8.436;2023-03-01T08:10:58;21.85;;;11.60;;
40729;SDS011;26418;50.070;8.436;2023-03-01T08:13:24;23.40;;;12.30;;
40729;SDS011;26418;50.070;8.436;2023-03-01T08:15:50;22.10;;;12.13;;
40729;SDS011;26418;50.070;8.436;2023-03-01T08:18:16;25.17;;;12.63;;
40729;SDS011;26418;50.070;8.436;2023-03-01T08:20:42;22.80;;;12.23;;
40729;SDS011;26418;50.070;8.436;2023-03-01T08:23:08;24.45;;;12.25;;
40729;SDS011;26418;50.070;8.436;2023-03-01T08:25:33;24.52;;;12.07;;
40729;SDS011;26418;50.070;8.436;2023-03-01T08:27:59;21.27;;;11.85;;
40729;SDS011;26418;50.070;8.436;2023-03-01T08:30:24;21.15;;;12.50;;
40729;SDS011;26418;50.070;8.436;2023-03-01T08:32:50;25.75;;;12.82;;
40729;SDS011;26418;50.070;8.436;2023-03-01T08:35:16;21.80;;;11.45;;
40729;SDS011;26418;50.070;8.436;2023-03-01T08:37:42;19.08;;;11.43;;
40729;SDS011;26418;50.070;8.436;2023-03-01T08:40:07;22.23;;;11.40;;
40729;SDS011;26418;50.070;8.436;2023-03-01T08:42:35;25.70;;;12.57;;
40729;SDS011;26418;50.070;8.436;2023-03-01T08:45:01;26.02;;;12.10;;
40729;SDS011;26418;50.070;8.436;2023-03-01T08:47:26;22.02;;;10.73;;
40729;SDS011;26418;50.070;8.436;2023-03-01T08:49:51;24.10;;;11.13;;
40729;SDS011;26418;50.070;8.436;2023-03-01T08:52:18;22.40;;;12.00;;
40729;SDS011;26418;50.070;8.436;2023-03-01T08:54:46;23.35;;;12.18;;
40729;SDS011;26418;50.070;8.436;2023-03-01T08:57:12;22.95;;;11.93;;
40729;SDS011;26418;50.070;8.436;2023-03-01T08:59:38;24.05;;;12.10;;
40729;SDS011;26418;50.070;8.436;2023-03-01T09:02:04;21.88;;;12.13;;
40729;SDS011;26418;50.070;8.436;2023-03-01T09:04:30;20.95;;;12.13;;
40729;SDS011;26418;50.070;8.436;2023-03-01T09:06:56;22.50;;;12.75;;
40729;SDS011;26418;50.070;8.436;2023-03-01T09:09:21;22.08;;;12.23;;
40729;SDS011;26418;50.070;8.436;2023-03-01T09:11:47;22.23;;;12.00;;
40729;SDS011;26418;50.070;8.436;2023-03-01T09:14:14;25.17;;;12.35;;
40729;SDS011;26418;50.070;8.436;2023-03-01T09:16:40;20.33;;;11.80;;
40729;SDS011;26418;50.070;8.436;2023-03-01T09:19:05;22.15;;;11.60;;
40729;SDS011;26418;50.070;8.436;2023-03-01T09:21:31;22.98;;;12.93;;
40729;SDS011;26418;50.070;8.436;2023-03-01T09:23:57;22.40;;;11.20;;
40729;SDS011;26418;50.070;8.436;2023-03-01T09:26:23;25.42;;;12.50;;
40729;SDS011;26418;50.070;8.436;2023-03-01T09:28:50;24.60;;;13.02;;
40729;SDS011;26418;50.070;8.436;2023-03-01T09:31:18;21.25;;;12.68;;
40729;SDS011;26418;50.070;8.436;2023-03-01T09:33:48;35.33;;;12.95;;
40729;SDS011;26418;50.070;8.436;2023-03-01T09:36:16;21.40;;;12.50;;
40729;SDS011;26418;50.070;8.436;2023-03-01T09:38:43;19.73;;;12.57;;
40729;SDS011;26418;50.070;8.436;2023-03-01T09:41:35;23.38;;;12.13;;
40729;SDS011;26418;50.070;8.436;2023-03-01T09:46:52;21.42;;;11.95;;
40729;SDS011;26418;50.070;8.436;2023-03-01T09:49:30;27.38;;;12.75;;
40729;SDS011;26418;50.070;8.436;2023-03-01T09:54:49;26.92;;;13.32;;
40729;SDS011;26418;50.070;8.436;2023-03-01T09:57:40;25.23;;;12.50;;
40729;SDS011;26418;50.070;8.436;2023-03-01T10:00:19;23.95;;;12.38;;
40729;SDS011;26418;50.070;8.436;2023-03-01T10:05:59;25.20;;;12.70;;
40729;SDS011;26418;50.070;8.436;2023-03-01T10:11:01;23.08;;;12.93;;
40729;SDS011;26418;50.070;8.436;2023-03-01T10:19:08;21.17;;;12.95;;
40729;SDS011;26418;50.070;8.436;2023-03-01T10:21:41;21.75;;;12.98;;
40729;SDS011;26418;50.070;8.436;2023-03-01T10:24:11;23.23;;;13.98;;
40729;SDS011;26418;50.070;8.436;2023-03-01T10:29:31;26.58;;;13.80;;
40729;SDS011;26418;50.070;8.436;2023-03-01T10:32:04;23.80;;;13.73;;
40729;SDS011;26418;50.070;8.436;2023-03-01T10:34:32;23.10;;;12.60;;
40729;SDS011;26418;50.070;8.436;2023-03-01T10:39:34;23.88;;;13.35;;
40729;SDS011;26418;50.070;8.436;2023-03-01T10:42:00;20.65;;;12.52;;
40729;SDS011;26418;50.070;8.436;2023-03-01T10:47:44;24.60;;;13.48;;
40729;SDS011;26418;50.070;8.436;2023-03-01T10:50:19;25.30;;;13.10;;
40729;SDS011;26418;50.070;8.436;2023-03-01T10:53:00;26.83;;;13.77;;
40729;SDS011;26418;50.070;8.436;2023-03-01T10:55:31;22.33;;;13.75;;
40729;SDS011;26418;50.070;8.436;2023-03-01T11:03:21;24.33;;;12.95;;
40729;SDS011;26418;50.070;8.436;2023-03-01T11:11:16;23.40;;;13.02;;
40729;SDS011;26418;50.070;8.436;2023-03-01T11:14:18;19.80;;;12.68;;
40729;SDS011;26418;50.070;8.436;2023-03-01T11:16:47;22.40;;;13.05;;
40729;SDS011;26418;50.070;8.436;2023-03-01T11:19:16;22.25;;;11.55;;
40729;SDS011;26418;50.070;8.436;2023-03-01T11:24:30;20.63;;;13.30;;
40729;SDS011;26418;50.070;8.436;2023-03-01T11:27:02;20.35;;;13.10;;
40729;SDS011;26418;50.070;8.436;2023-03-01T11:29:41;23.95;;;12.88;;
40729;SDS011;26418;50.070;8.436;2023-03-01T11:32:12;20.52;;;12.07;;
40729;SDS011;26418;50.070;8.436;2023-03-01T11:37:09;27.45;;;12.60;;
40729;SDS011;26418;50.070;8.436;2023-03-01T11:40:05;20.90;;;12.15;;
40729;SDS011;26418;50.070;8.436;2023-03-01T11:45:15;24.27;;;11.68;;
40729;SDS011;26418;50.070;8.436;2023-03-01T11:48:15;20.45;;;11.75;;
40729;SDS011;26418;50.070;8.436;2023-03-01T11:50:46;21.90;;;11.65;;
40729;SDS011;26418;50.070;8.436;2023-03-01T11:56:14;18.23;;;10.07;;
40729;SDS011;26418;50.070;8.436;2023-03-01T12:02:21;19.83;;;11.15;;
40729;SDS011;26418;50.070;8.436;2023-03-01T12:08:24;19.80;;;11.55;;
40729;SDS011;26418;50.070;8.436;2023-03-01T12:16:24;20.38;;;10.77;;
40729;SDS011;26418;50.070;8.436;2023-03-01T12:21:50;19.08;;;9.95;;
40729;SDS011;26418;50.070;8.436;2023-03-01T12:29:58;15.88;;;10.02;;
40729;SDS011;26418;50.070;8.436;2023-03-01T12:40:53;16.60;;;9.98;;
40729;SDS011;26418;50.070;8.436;2023-03-01T12:43:43;16.58;;;9.55;;
40729;SDS011;26418;50.070;8.436;2023-03-01T12:51:31;18.85;;;9.50;;
40729;SDS011;26418;50.070;8.436;2023-03-01T12:53:59;20.67;;;9.98;;
40729;SDS011;26418;50.070;8.436;2023-03-01T12:56:32;16.85;;;9.85;;
40729;SDS011;26418;50.070;8.436;2023-03-01T13:09:51;19.67;;;9.27;;
40729;SDS011;26418;50.070;8.436;2023-03-01T13:17:47;16.38;;;8.38;;
40729;SDS011;26418;50.070;8.436;2023-03-01T13:20:15;15.55;;;9.02;;
40729;SDS011;26418;50.070;8.436;2023-03-01T13:22:41;16.80;;;10.02;;
40729;SDS011;26418;50.070;8.436;2023-03-01T13:27:44;13.35;;;8.63;;
40729;SDS011;26418;50.070;8.436;2023-03-01T13:33:51;17.85;;;10.07;;
40729;SDS011;26418;50.070;8.436;2023-03-01T13:35:52;15.00;;;8.05;;
40729;SDS011;26418;50.070;8.436;2023-03-01T13:38:37;15.70;;;7.85;;
40729;SDS011;26418;50.070;8.436;2023-03-01T13:41:11;18.58;;;8.85;;
40729;SDS011;26418;50.070;8.436;2023-03-01T13:43:40;15.68;;;8.55;;
40729;SDS011;26418;50.070;8.436;2023-03-01T13:46:09;17.00;;;8.48;;
40729;SDS011;26418;50.070;8.436;2023-03-01T13:48:42;15.60;;;8.05;;
40729;SDS011;26418;50.070;8.436;2023-03-01T13:51:10;15.57;;;8.43;;
40729;SDS011;26418;50.070;8.436;2023-03-01T13:53:42;14.65;;;9.50;;
40729;SDS011;26418;50.070;8.436;2023-03-01T13:56:17;13.15;;;8.05;;
40729;SDS011;26418;50.070;8.436;2023-03-01T13:58:50;14.90;;;8.18;;
40729;SDS011;26418;50.070;8.436;2023-03-01T14:04:21;15.75;;;9.10;;
40729;SDS011;26418;50.070;8.436;2023-03-01T14:06:51;12.65;;;7.47;;
40729;SDS011;26418;50.070;8.436;2023-03-01T14:09:33;12.95;;;8.10;;
40729;SDS011;26418;50.070;8.436;2023-03-01T14:20:24;16.70;;;8.48;;
40729;SDS011;26418;50.070;8.436;2023-03-01T14:22:53;14.60;;;8.18;;
40729;SDS011;26418;50.070;8.436;2023-03-01T14:25:22;14.07;;;8.27;;
40729;SDS011;26418;50.070;8.436;2023-03-01T14:28:00;14.55;;;8.77;;
40729;SDS011;26418;50.070;8.436;2023-03-01T14:30:27;13.30;;;8.38;;
40729;SDS011;26418;50.070;8.436;2023-03-01T14:32:58;13.52;;;8.13;;
40729;SDS011;26418;50.070;8.436;2023-03-01T14:35:35;17.73;;;8.70;;
40729;SDS011;26418;50.070;8.436;2023-03-01T14:38:01;16.23;;;8.98;;
40729;SDS011;26418;50.070;8.436;2023-03-01T14:40:32;16.17;;;8.80;;
40729;SDS011;26418;50.070;8.436;2023-03-01T14:43:00;16.33;;;8.98;;
40729;SDS011;26418;50.070;8.436;2023-03-01T14:45:28;13.35;;;8.13;;
40729;SDS011;26418;50.070;8.436;2023-03-01T14:47:55;10.45;;;7.18;;
40729;SDS011;26418;50.070;8.436;2023-03-01T14:50:27;16.00;;;8.57;;
40729;SDS011;26418;50.070;8.436;2023-03-01T14:52:58;16.00;;;8.38;;
40729;SDS011;26418;50.070;8.436;2023-03-01T14:55:30;19.70;;;8.77;;
40729;SDS011;26418;50.070;8.436;2023-03-01T14:57:59;13.27;;;7.65;;
40729;SDS011;26418;50.070;8.436;2023-03-01T15:00:28;15.40;;;8.00;;
40729;SDS011;26418;50.070;8.436;2023-03-01T15:02:56;14.82;;;8.75;;
40729;SDS011;26418;50.070;8.436;2023-03-01T15:05:25;15.80;;;7.80;;
40729;SDS011;26418;50.070;8.436;2023-03-01T15:07:54;14.13;;;8.23;;
40729;SDS011;26418;50.070;8.436;2023-03-01T15:10:23;14.68;;;8.02;;
40729;SDS011;26418;50.070;8.436;2023-03-01T15:12:50;15.07;;;8.50;;
40729;SDS011;26418;50.070;8.436;2023-03-01T15:17:56;12.52;;;7.88;;
40729;SDS011;26418;50.070;8.436;2023-03-01T15:20:24;17.38;;;8.65;;
40729;SDS011;26418;50.070;8.436;2023-03-01T15:22:52;15.73;;;8.63;;
40729;SDS011;26418;50.070;8.436;2023-03-01T15:25:21;13.75;;;8.07;;
40729;SDS011;26418;50.070;8.436;2023-03-01T15:27:50;13.52;;;8.02;;
40729;SDS011;26418;50.070;8.436;2023-03-01T15:30:19;13.52;;;8.30;;
40729;SDS011;26418;50.070;8.436;2023-03-01T15:32:47;15.95;;;7.78;;
40729;SDS011;26418;50.070;8.436;2023-03-01T15:38:00;14.90;;;8.65;;
40729;SDS011;26418;50.070;8.436;2023-03-01T15:40:27;12.57;;;7.70;;
40729;SDS011;26418;50.070;8.436;2023-03-01T15:42:57;13.87;;;8.10;;
40729;SDS011;26418;50.070;8.436;2023-03-01T15:45:28;14.10;;;7.40;;
40729;SDS011;26418;50.070;8.436;2023-03-01T15:48:05;16.00;;;7.32;;
40729;SDS011;26418;50.070;8.436;2023-03-01T15:50:42;15.63;;;7.90;;
40729;SDS011;26418;50.070;8.436;2023-03-01T15:53:12;12.90;;;7.40;;
40729;SDS011;26418;50.070;8.436;2023-03-01T15:55:39;15.73;;;7.90;;
40729;SDS011;26418;50.070;8.436;2023-03-01T15:58:21;14.35;;;7.72;;
40729;SDS011;26418;50.070;8.436;2023-03-01T16:00:49;13.40;;;6.95;;
40729;SDS011;26418;50.070;8.436;2023-03-01T16:03:20;13.35;;;7.70;;
40729;SDS011;26418;50.070;8.436;2023-03-01T16:05:47;13.90;;;7.18;;
40729;SDS011;26418;50.070;8.436;2023-03-01T16:08:13;13.65;;;8.43;;
40729;SDS011;26418;50.070;8.436;2023-03-01T16:10:40;14.27;;;7.07;;
40729;SDS011;26418;50.070;8.436;2023-03-01T16:13:08;11.52;;;7.70;;
40729;SDS011;26418;50.070;8.436;2023-03-01T16:15:34;15.15;;;7.35;;
40729;SDS011;26418;50.070;8.436;2023-03-01T16:18:01;13.02;;;7.85;;
40729;SDS011;26418;50.070;8.436;2023-03-01T16:20:27;17.48;;;8.27;;
40729;SDS011;26418;50.070;8.436;2023-03-01T16:22:53;15.90;;;8.70;;
40729;SDS011;26418;50.070;8.436;2023-03-01T16:25:19;14.25;;;7.97;;
40729;SDS011;26418;50.070;8.436;2023-03-01T16:27:46;14.38;;;7.60;;
40729;SDS011;26418;50.070;8.436;2023-03-01T16:30:14;12.10;;;7.22;;
40729;SDS011;26418;50.070;8.436;2023-03-01T16:32:42;13.52;;;7.93;;
40729;SDS011;26418;50.070;8.436;2023-03-01T16:35:08;15.98;;;8.20;;
40729;SDS011;26418;50.070;8.436;2023-03-01T16:37:37;14.30;;;8.30;;
40729;SDS011;26418;50.070;8.436;2023-03-01T16:40:03;15.85;;;8.35;;